Ana Sayfa
METAR-TAF:

METAR-TAF

Havaalanları :

Newport News/Williamsburg International Airport

Newport News, Virginia, Amerika Birleşik Devletleri

Enlem: 37-07-55N, Boylam: 076-29-35W, yükseklik: 13 m

Güncel hava durumu gözlemi

Rapor saat 23:54 UTC de 53 dakika önce yapıldı.
Sakin rüzgar
Sıcaklık 13°C
Nem 94%
Basınç 1017 hPa
Görüş mesafesi: 16.1 km
Açık gökyüzü

METAR: KPHF 232354Z 00000KT 10SM CLR 13/12 A3004 RMK AO2 SLP170 T01330122 10217 20128 53021

Saat: 20:47 (00:47 UTC)

Tahmin

Rapor saat 23:20 UTC de 1 saat ve 27 dakika önce yapıldı.
Ayın 24'si saat 00 UTC'den ayın 24'si saat 24 UTC'ye kadar geçerli Tahmin
Rüzgar kuzeydan kt
Görüş mesafesi: 10 km
15000 ft yükseklikte parçalı çok bulutlu
Ayın 24'si saat 1800 UTC'den
Rüzgar güneydan 9 kt
Görüş mesafesi: 10 km
5000 ft yükseklikte parçalı bulutlu

TAF: KPHF 232320Z 2400/2424 00000KT P6SM BKN150 FM241800 18009KT P6SM SCT050

4.000'den fazla havaalanı için hava durumu gözlemleri ve tahminleri (METAR ve TAF raporları).

Kullanılabilir istasyonlar harita üzerinde sarı ve kırmızı noktalarla gösterilir.

İstasyonun adını görmek için fareyi noktanın üzerinde gezdirin.

Sonrasında hava gözlem ve tahminlerini görmek için tıklayın.

Haritayı değiştirmek için: yaklaştırmak için siyah artı işaretli yeşil düğmeye ve uzaklaştırmak için de eksi işaretli düğmeye hızla tıklayın; bitişik haritalar için yeşil okları kullanın.


METAR-TAF: